Aérodrome :
LOGIN :

S'inscrire | Disclaimer

   EN    FR    IT 

 










Légende :    VFR   VFR Marginal   IFR   IFR Intensif   IFR Très Intensif
Visi : 
Plafond : 
>= 8 km
>= 3000ft
5 à 8 km
1000 à 3000 ft
1500m à 5 km
500 à 1000 ft
800 à 1500m
200 à 500 ft
< 800m
< 200 ft
Symboles :   Orages  Brouillard  Fortes neiges  Fortes précipitations  Vent > 20 kt
SIGMETs :   Divers  Orages  Givrage  Turbulence  Onde Orograph.  Cendres Volcan.






- Altitude de l'aérodrome : 675 ft
- Code IATA : RZE


EPRZ - Rzeszow-Jasionka

DERNIER METAR :
  • 270730Z 27003KT 5000 BR NSC M02/M03 Q1016

METARs EXPIRÉS :
  • 270700Z 26005KT 4000 BR NSC M03/M04 Q1016
  • 270630Z VRB01KT 4000 BR NSC M04/M05 Q1016
  • 270600Z 24003KT 6000 NSC M04/M05 Q1016
  • 270530Z 26004KT 6000 NSC M04/M04 Q1016
  • 270500Z VRB01KT 5000 BR NSC M04/M04 Q1016
  • 270430Z VRB01KT 5000 BR NSC M04/M05 Q1016

TAF TAF EPRZ
Valide du 27 à 06h jusqu'au 28 à 06h UTC


270530Z 2706/2806 25003KT 7000 NSC
TEMPO 2706/2708 4000 BR
BECMG 2803/2806 19012KT



MET'MAP, la Météo Aéronautique d'un coup d'oeil ! - Copyright ORBIFLY Décembre 2007 - Disclaimer

ORBIFLY MET'MAP TEAM :

Programmation & Développement : Alexandra Zaïnal
Sur une idée originale de : Baudouin d'Aumeries
Assistance à la programmation : Marc-Olivier Méhu
Soutien technique & logistique : Manuel Goepfert

Contact : metmap@orbifly.com




SOURCES & CREDITS :

   NOAA